Time;durP1;ratioP1;P1;durP2;ratioP2;P2;SDS_P1;SDS_P2;PMS_P1;PMS_P2;Temp;Humidity;BMP_temperature;BMP_pressure;BME280_temperature;BME280_humidity;BME280_pressure;Samples;Min_cycle;Max_cycle;Signal;HPM_P1;HPM_P2
2022/07/29 00:02:19;;;;;;;1.70;0.93;;;;;;;23.68;39.42;101768.53;5066226;28;20036;-60
2022/07/29 00:04:45;;;;;;;1.70;0.70;;;;;;;23.51;39.54;101742.50;5065514;28;20478;-60
2022/07/29 00:07:10;;;;;;;0.70;0.50;;;;;;;23.64;39.43;101764.47;5065189;28;20120;-60
2022/07/29 00:09:35;;;;;;;1.70;0.73;;;;;;;23.66;39.54;101757.00;5065752;28;20036;-59
2022/07/29 00:12:01;;;;;;;2.55;0.90;;;;;;;23.65;39.51;101756.16;5085021;28;20083;-60
2022/07/29 00:14:26;;;;;;;1.77;0.85;;;;;;;23.65;39.52;101749.88;5085736;28;20027;-60
2022/07/29 00:16:52;;;;;;;1.05;0.70;;;;;;;23.65;39.48;101755.31;5085572;28;20461;-60
2022/07/29 00:19:17;;;;;;;1.20;1.00;;;;;;;23.64;39.47;101751.72;5085642;28;20016;-60
2022/07/29 00:21:42;;;;;;;1.42;0.60;;;;;;;23.64;39.46;101746.31;5085302;28;20031;-60
2022/07/29 00:24:08;;;;;;;1.13;0.50;;;;;;;23.59;39.78;101737.03;5085578;28;20024;-60
2022/07/29 00:26:33;;;;;;;1.73;0.80;;;;;;;23.64;39.27;101745.47;5085506;28;20029;-60
2022/07/29 00:28:59;;;;;;;1.95;0.80;;;;;;;23.53;39.41;101727.69;5085484;28;20076;-60
2022/07/29 00:31:25;;;;;;;2.10;0.80;;;;;;;23.62;39.47;101745.66;5085668;28;20035;-59
2022/07/29 00:33:50;;;;;;;2.15;0.80;;;;;;;23.55;39.41;101727.53;5085333;28;20052;-59
2022/07/29 00:36:15;;;;;;;1.98;0.57;;;;;;;23.61;39.65;101740.38;5085002;28;20113;-58
2022/07/29 00:38:44;;;;;;;1.00;0.65;;;;;;;23.60;39.41;101731.41;5085369;28;20047;-59
2022/07/29 00:41:09;;;;;;;1.27;0.73;;;;;;;23.60;39.35;101736.81;5085262;28;20082;-60
2022/07/29 00:43:34;;;;;;;0.80;0.68;;;;;;;23.59;39.43;101735.16;5084970;28;20049;-60
2022/07/29 00:45:59;;;;;;;1.45;0.80;;;;;;;23.59;39.37;101726.16;5085050;28;20033;-60
2022/07/29 00:48:25;;;;;;;3.30;0.90;;;;;;;23.59;39.50;101724.28;5085445;28;20032;-59
2022/07/29 00:50:50;;;;;;;1.83;0.70;;;;;;;23.59;39.44;101718.00;5084996;28;20047;-60
2022/07/29 00:53:16;;;;;;;1.60;0.90;;;;;;;23.58;39.69;101719.06;5084981;28;20028;-59
2022/07/29 00:55:41;;;;;;;1.05;0.60;;;;;;;23.54;39.70;101712.28;5084903;28;20098;-60
2022/07/29 00:58:06;;;;;;;1.95;0.80;;;;;;;23.58;39.49;101719.06;5083903;28;20488;-60
2022/07/29 01:00:32;;;;;;;1.10;0.70;;;;;;;23.56;39.61;101711.06;5085162;28;20051;-59
2022/07/29 01:02:57;;;;;;;2.15;0.73;;;;;;;23.57;39.33;101720.06;5072373;28;20492;-60
2022/07/29 01:05:24;;;;;;;0.82;0.60;;;;;;;23.55;39.55;101709.38;5069313;28;20029;-60
2022/07/29 01:07:52;;;;;;;1.05;0.60;;;;;;;23.56;39.59;101713.78;5064713;28;20086;-60
2022/07/29 01:10:19;;;;;;;1.48;0.68;;;;;;;23.54;39.58;101706.84;5067382;28;20025;-60
2022/07/29 01:12:46;;;;;;;1.30;0.60;;;;;;;23.54;39.68;101704.97;5084737;28;20016;-59
2022/07/29 01:15:12;;;;;;;1.25;0.60;;;;;;;23.53;39.62;101711.41;5083494;28;20031;-60
2022/07/29 01:17:59;;;;;;;1.05;0.50;;;;;;;23.54;39.72;101706.84;5085226;28;20024;-59
2022/07/29 01:20:34;;;;;;;2.30;0.88;;;;;;;23.53;39.33;101705.97;5068349;28;20025;-61
2022/07/29 01:23:21;;;;;;;2.00;0.80;;;;;;;23.53;39.36;101702.44;5063298;28;20025;-60
2022/07/29 01:26:05;;;;;;;1.63;0.80;;;;;;;23.53;39.72;101699.72;5063550;28;20025;-60
2022/07/29 01:29:09;;;;;;;1.60;0.70;;;;;;;23.51;39.31;101694.47;5065012;28;20025;-59
2022/07/29 01:31:43;;;;;;;1.30;0.75;;;;;;;23.51;39.49;101697.19;5053397;28;20032;-60
2022/07/29 01:34:11;;;;;;;1.08;0.50;;;;;;;23.51;39.57;101693.63;5063426;28;20029;-59
2022/07/29 01:36:47;;;;;;;0.88;0.68;;;;;;;23.50;39.48;101683.81;5073498;28;20066;-60
2022/07/29 01:39:18;;;;;;;0.68;0.50;;;;;;;23.19;39.65;101635.81;5083679;28;20021;-60
2022/07/29 01:41:50;;;;;;;1.00;0.50;;;;;;;23.48;39.65;101686.69;5084369;28;20107;-60
2022/07/29 01:44:23;;;;;;;0.88;0.52;;;;;;;23.49;39.54;101679.38;5083112;28;20045;-60
2022/07/29 01:46:56;;;;;;;1.13;0.70;;;;;;;23.48;39.67;101685.84;5083233;28;20123;-60
2022/07/29 01:49:25;;;;;;;0.85;0.47;;;;;;;23.47;39.74;101679.56;5083481;28;20046;-61
2022/07/29 01:51:53;;;;;;;1.38;0.63;;;;;;;23.47;39.65;101670.59;5084542;28;20021;-60
2022/07/29 01:54:23;;;;;;;1.38;0.93;;;;;;;23.47;39.39;101678.75;5084874;28;20020;-60
2022/07/29 01:56:51;;;;;;;1.63;0.80;;;;;;;23.38;39.70;101667.94;5087169;28;20028;-59
2022/07/29 01:59:18;;;;;;;0.87;0.60;;;;;;;23.44;39.80;101678.06;5087184;28;20385;-59
2022/07/29 02:01:45;;;;;;;1.23;0.80;;;;;;;23.42;39.57;101674.69;5088318;28;20269;-59
2022/07/29 02:04:12;;;;;;;1.30;0.80;;;;;;;23.43;39.79;101676.38;5086984;28;20054;-59
2022/07/29 02:06:38;;;;;;;1.80;0.90;;;;;;;23.43;39.52;101670.94;5087474;28;20021;-58
2022/07/29 02:09:05;;;;;;;1.15;0.60;;;;;;;23.41;39.70;101667.59;5088129;28;20040;-61
2022/07/29 02:11:32;;;;;;;3.83;1.05;;;;;;;23.40;39.78;101659.59;5071078;28;20033;-60
2022/07/29 02:13:57;;;;;;;1.77;0.70;;;;;;;23.42;39.54;101669.25;5066562;28;20020;-60
2022/07/29 02:16:24;;;;;;;0.75;0.60;;;;;;;23.42;39.75;101666.56;5066603;28;20044;-60
2022/07/29 02:18:51;;;;;;;1.85;0.52;;;;;;;23.42;39.81;101671.97;5066811;28;20083;-59
2022/07/29 02:21:21;;;;;;;0.93;0.70;;;;;;;23.43;39.83;101678.25;5066705;28;20025;-58
2022/07/29 02:23:46;;;;;;;2.42;0.80;;;;;;;23.41;39.80;101672.16;5067859;28;20366;-60
2022/07/29 02:26:12;;;;;;;2.13;0.90;;;;;;;23.40;39.71;101665.88;5067673;28;20092;-60
2022/07/29 02:28:39;;;;;;;1.10;0.52;;;;;;;23.40;39.94;101665.88;5067572;28;20049;-60
2022/07/29 02:31:05;;;;;;;1.13;0.50;;;;;;;23.39;39.64;101666.91;5066552;28;20555;-60
2022/07/29 02:33:31;;;;;;;1.33;0.73;;;;;;;23.39;39.74;101672.31;5067704;28;20037;-60
2022/07/29 02:35:58;;;;;;;1.00;0.70;;;;;;;23.39;39.74;101666.06;5067383;28;20029;-60
2022/07/29 02:41:11;;;;;;;2.58;0.77;;;;;;;23.38;39.78;101661.66;5067592;28;20038;-61
2022/07/29 02:43:37;;;;;;;1.83;0.60;;;;;;;23.37;39.97;101662.69;5065996;28;20428;-60
2022/07/29 02:46:04;;;;;;;3.40;0.90;;;;;;;23.39;39.79;101657.91;5065929;28;20055;-59
2022/07/29 02:48:37;;;;;;;1.40;0.80;;;;;;;23.38;39.75;101661.66;5067424;28;20035;-60
2022/07/29 02:51:17;;;;;;;0.77;0.63;;;;;;;23.36;39.65;101663.69;5066044;28;20424;-60
2022/07/29 02:53:44;;;;;;;0.85;0.50;;;;;;;23.37;39.67;101668.97;5065757;28;20081;-60
2022/07/29 02:56:14;;;;;;;0.82;0.55;;;;;;;23.37;39.69;101676.28;5065925;28;20021;-59
2022/07/29 02:58:40;;;;;;;0.80;0.65;;;;;;;23.36;39.60;101682.69;5067131;28;20021;-60
2022/07/29 03:01:27;;;;;;;1.00;0.60;;;;;;;23.36;39.72;101686.28;5067068;28;20033;-59
2022/07/29 03:03:53;;;;;;;1.55;0.80;;;;;;;23.35;39.66;101686.44;5049349;28;20025;-60
2022/07/29 03:06:20;;;;;;;0.75;0.50;;;;;;;23.34;39.59;101676.63;5065164;28;20055;-58
2022/07/29 03:08:46;;;;;;;0.90;0.70;;;;;;;23.36;39.98;101677.28;5066777;28;20029;-60
2022/07/29 03:11:12;;;;;;;1.85;0.80;;;;;;;23.34;39.80;101684.75;5080055;28;20043;-59
2022/07/29 03:13:38;;;;;;;1.63;0.70;;;;;;;23.27;39.48;101672.91;5087012;28;20385;-60
2022/07/29 03:16:04;;;;;;;1.60;0.57;;;;;;;23.33;40.02;101683.91;5085480;28;20028;-60
2022/07/29 03:18:30;;;;;;;1.00;0.50;;;;;;;23.33;39.93;101680.38;5085784;28;20526;-61
2022/07/29 03:20:56;;;;;;;1.23;0.90;;;;;;;23.33;39.94;101680.38;5086769;28;20032;-61
2022/07/29 03:23:23;;;;;;;0.60;0.52;;;;;;;23.32;39.93;101671.38;5086407;28;20112;-60
2022/07/29 03:25:51;;;;;;;1.33;0.60;;;;;;;23.32;39.71;101668.66;5086491;28;20099;-60
2022/07/29 03:28:17;;;;;;;0.93;0.70;;;;;;;23.31;39.87;101664.25;5086770;28;20079;-59
2022/07/29 03:30:42;;;;;;;1.00;0.80;;;;;;;23.31;39.90;101664.25;5086398;28;20024;-59
2022/07/29 03:33:07;;;;;;;1.40;0.75;;;;;;;23.31;39.86;101668.81;5086428;28;20024;-60
2022/07/29 03:35:33;;;;;;;0.95;0.70;;;;;;;23.30;39.83;101672.56;5086220;28;20024;-59
2022/07/29 03:37:58;;;;;;;1.92;0.80;;;;;;;23.27;40.06;101668.34;5085921;28;20382;-60
2022/07/29 03:40:54;;;;;;;0.95;0.50;;;;;;;23.28;39.79;101675.47;5086366;28;20024;-59
2022/07/29 03:43:20;;;;;;;1.48;0.77;;;;;;;23.28;39.93;101669.19;5086013;28;20121;-59
2022/07/29 03:45:47;;;;;;;2.20;0.70;;;;;;;23.28;39.85;101664.63;5084917;28;20028;-60
2022/07/29 03:48:15;;;;;;;1.50;0.63;;;;;;;23.27;40.02;101660.19;5086319;28;20024;-60
2022/07/29 03:50:40;;;;;;;1.40;0.70;;;;;;;23.27;39.62;101656.63;5084717;28;20029;-60
2022/07/29 03:53:06;;;;;;;2.90;1.17;;;;;;;23.27;39.97;101662.06;5067829;28;20070;-60
2022/07/29 03:55:39;;;;;;;0.82;0.65;;;;;;;23.27;39.96;101657.47;5086015;28;20047;-60
2022/07/29 03:58:05;;;;;;;0.90;0.70;;;;;;;23.26;40.14;101652.25;5086383;28;20029;-60
2022/07/29 04:00:31;;;;;;;2.45;1.13;;;;;;;23.25;39.85;101659.53;5085018;28;20070;-60
2022/07/29 04:02:57;;;;;;;1.45;0.85;;;;;;;23.25;40.03;101662.25;5084801;28;20029;-61
2022/07/29 04:05:22;;;;;;;1.25;0.70;;;;;;;23.25;40.04;101659.53;5085628;28;20024;-60
2022/07/29 04:07:48;;;;;;;1.10;0.60;;;;;;;23.25;39.72;101662.25;5085253;28;20032;-61
2022/07/29 04:10:15;;;;;;;1.27;0.50;;;;;;;23.25;39.96;101664.13;5086132;28;20106;-61
2022/07/29 04:12:40;;;;;;;0.95;0.50;;;;;;;23.25;39.89;101661.41;5085558;28;20043;-61
2022/07/29 04:15:06;;;;;;;1.30;0.73;;;;;;;23.23;39.82;101658.88;5085893;28;20032;-61
2022/07/29 04:17:32;;;;;;;1.48;0.60;;;;;;;23.23;39.89;101658.03;5085424;28;20078;-60
2022/07/29 04:19:57;;;;;;;1.27;0.60;;;;;;;23.23;40.10;101667.00;5085440;28;20025;-60
2022/07/29 04:22:22;;;;;;;0.60;0.57;;;;;;;23.23;40.11;101666.16;5085169;28;20028;-60
2022/07/29 04:24:47;;;;;;;0.95;0.60;;;;;;;23.18;39.81;101659.41;5085371;28;20023;-60
2022/07/29 04:27:12;;;;;;;0.70;0.70;;;;;;;23.22;39.79;101667.19;5085442;28;20046;-60
2022/07/29 04:29:38;;;;;;;1.08;0.60;;;;;;;23.21;39.87;101663.63;5085282;28;20078;-60
2022/07/29 04:32:03;;;;;;;2.20;1.02;;;;;;;23.22;39.93;101650.91;5085446;28;20074;-60
2022/07/29 04:34:29;;;;;;;1.25;0.52;;;;;;;23.21;39.85;101655.50;5085429;28;20025;-57
2022/07/29 04:36:55;;;;;;;2.10;0.77;;;;;;;23.20;39.95;101662.78;5084847;28;20040;-60
2022/07/29 04:39:20;;;;;;;1.67;0.70;;;;;;;23.20;40.00;101653.81;5085566;28;20023;-60
2022/07/29 04:41:45;;;;;;;1.65;0.77;;;;;;;23.20;39.91;101643.81;5084980;28;20051;-59
2022/07/29 04:44:11;;;;;;;1.88;1.08;;;;;;;23.19;40.06;101649.41;5085436;28;20048;-60
2022/07/29 04:46:36;;;;;;;0.88;0.60;;;;;;;23.18;40.12;101659.41;5085160;28;20025;-60
2022/07/29 04:49:03;;;;;;;2.05;1.45;;;;;;;23.18;40.19;101661.28;5085559;28;20095;-60
2022/07/29 04:51:28;;;;;;;2.67;0.90;;;;;;;23.15;39.87;101653.47;5085316;28;20020;-60
2022/07/29 04:53:53;;;;;;;1.40;0.80;;;;;;;23.16;39.94;101669.59;5083768;28;20028;-60
2022/07/29 04:56:18;;;;;;;1.25;0.85;;;;;;;23.12;40.19;101664.72;5085045;28;20301;-61
2022/07/29 04:58:43;;;;;;;1.50;0.75;;;;;;;23.16;39.85;101672.31;5085265;28;20032;-61
2022/07/29 05:01:09;;;;;;;0.70;0.57;;;;;;;23.16;39.93;101663.34;5085214;28;20078;-60
2022/07/29 05:03:34;;;;;;;0.93;0.70;;;;;;;23.15;40.16;101662.50;5083617;28;20036;-60
2022/07/29 05:05:59;;;;;;;1.48;0.68;;;;;;;23.15;40.10;101656.19;5080227;28;20040;-59
2022/07/29 05:08:24;;;;;;;1.63;0.63;;;;;;;23.13;40.30;101659.09;5044688;28;20021;-60
2022/07/29 05:10:50;;;;;;;1.45;0.95;;;;;;;23.14;40.13;101657.22;5065184;28;20086;-61
2022/07/29 05:13:15;;;;;;;1.30;0.70;;;;;;;23.14;40.15;101651.81;5084828;28;20024;-60
2022/07/29 05:15:41;;;;;;;1.02;0.73;;;;;;;23.14;39.96;101646.38;5084818;28;20028;-60
2022/07/29 05:18:06;;;;;;;1.83;0.80;;;;;;;23.10;40.13;101645.03;5084852;28;20024;-61
2022/07/29 05:20:32;;;;;;;1.08;0.70;;;;;;;23.13;39.96;101647.41;5084751;28;20017;-59
2022/07/29 05:22:59;;;;;;;0.98;0.70;;;;;;;23.13;40.21;101641.97;5084606;28;20020;-60
2022/07/29 05:25:25;;;;;;;1.05;0.75;;;;;;;23.11;40.45;101631.31;5084738;28;20051;-59
2022/07/29 05:27:51;;;;;;;2.63;0.82;;;;;;;23.12;40.30;101641.16;5085467;28;20028;-60
2022/07/29 05:30:16;;;;;;;1.95;0.90;;;;;;;23.13;40.35;101645.53;5088810;28;20071;-60
2022/07/29 05:32:41;;;;;;;2.15;0.80;;;;;;;22.94;40.42;101613.47;5088643;28;20054;-60
2022/07/29 05:35:07;;;;;;;1.80;0.90;;;;;;;23.12;40.63;101648.44;5088472;28;20024;-59
2022/07/29 05:37:33;;;;;;;2.55;0.95;;;;;;;23.12;40.60;101645.72;5087168;28;20075;-60
2022/07/29 05:39:58;;;;;;;1.40;1.00;;;;;;;23.11;40.68;101635.91;5088723;28;20080;-60
2022/07/29 05:42:24;;;;;;;1.85;1.00;;;;;;;23.06;40.76;101625.56;5088202;28;20029;-60
2022/07/29 05:44:49;;;;;;;2.50;1.10;;;;;;;23.11;40.81;101630.47;5088349;28;20058;-60
2022/07/29 05:47:15;;;;;;;1.13;0.73;;;;;;;23.10;40.78;101642.34;5088247;28;20024;-61
2022/07/29 05:49:41;;;;;;;1.30;0.75;;;;;;;23.09;40.51;101638.78;5088271;28;20115;-60
2022/07/29 05:52:06;;;;;;;1.35;0.70;;;;;;;23.10;40.86;101645.03;5086760;28;20104;-60
2022/07/29 05:54:31;;;;;;;1.65;0.80;;;;;;;23.11;40.69;101644.03;5088448;28;20050;-60
2022/07/29 05:56:56;;;;;;;1.30;0.82;;;;;;;23.09;40.84;101638.78;5087933;28;20088;-60
2022/07/29 05:59:22;;;;;;;1.80;0.80;;;;;;;23.09;40.67;101643.38;5088514;28;20027;-60
2022/07/29 06:01:47;;;;;;;1.17;0.60;;;;;;;23.08;40.76;101649.81;5088312;28;20048;-60
2022/07/29 06:04:12;;;;;;;1.15;0.85;;;;;;;23.08;40.82;101663.38;5088080;28;20024;-60
2022/07/29 06:06:37;;;;;;;0.93;0.75;;;;;;;23.08;40.76;101666.09;5087643;28;20029;-59
2022/07/29 06:09:03;;;;;;;1.35;0.93;;;;;;;23.08;40.95;101688.63;5087861;28;20488;-59
2022/07/29 06:11:28;;;;;;;3.20;0.90;;;;;;;22.98;40.71;101690.72;5072574;28;20104;-60
2022/07/29 06:13:53;;;;;;;1.00;0.80;;;;;;;23.07;40.78;101713.25;5067747;28;20021;-60
2022/07/29 06:16:19;;;;;;;2.60;1.05;;;;;;;23.07;41.08;101726.78;5067646;28;20063;-60
2022/07/29 06:18:44;;;;;;;1.73;1.02;;;;;;;22.99;40.91;101724.97;5067614;28;20056;-60
2022/07/29 06:21:10;;;;;;;1.30;1.00;;;;;;;23.08;41.00;101728.47;5067829;28;20035;-60
2022/07/29 06:23:37;;;;;;;1.48;0.90;;;;;;;23.07;40.90;101719.50;5067474;28;20111;-60
2022/07/29 06:26:02;;;;;;;1.58;0.98;;;;;;;23.04;41.08;101706.28;5067557;28;20032;-60
2022/07/29 06:28:28;;;;;;;1.00;0.80;;;;;;;23.08;41.00;101704.91;5067498;28;20028;-60
2022/07/29 06:30:53;;;;;;;0.85;0.75;;;;;;;23.09;41.08;101700.31;5067376;28;20104;-60
2022/07/29 06:33:19;;;;;;;1.48;0.80;;;;;;;23.10;40.86;101700.13;5067603;28;20029;-59
2022/07/29 06:35:45;;;;;;;1.63;0.90;;;;;;;23.10;41.06;101702.84;5067061;28;20021;-61
2022/07/29 06:38:11;;;;;;;2.03;0.77;;;;;;;23.10;41.14;101697.44;5066961;28;20044;-60
2022/07/29 06:43:20;;;;;;;1.55;0.93;;;;;;;23.11;40.99;101704.56;5066908;28;20507;-60
2022/07/29 06:45:46;;;;;;;1.65;0.75;;;;;;;23.10;41.18;101696.59;5066938;28;20044;-60
2022/07/29 06:48:11;;;;;;;1.50;0.80;;;;;;;23.10;41.14;101688.44;5067355;28;20056;-59
2022/07/29 06:50:36;;;;;;;1.00;0.77;;;;;;;23.10;41.06;101685.72;5067024;28;20052;-60
2022/07/29 06:53:02;;;;;;;1.48;0.82;;;;;;;23.10;41.18;101691.16;5066601;28;20036;-61
2022/07/29 06:55:27;;;;;;;0.95;0.75;;;;;;;23.06;41.12;101687.94;5065758;28;20060;-61
2022/07/29 06:57:52;;;;;;;1.55;0.80;;;;;;;23.10;41.19;101699.28;5067112;28;20140;-61
2022/07/29 07:00:18;;;;;;;1.60;0.80;;;;;;;22.92;41.17;101669.72;5066782;28;20389;-60
2022/07/29 07:02:43;;;;;;;1.92;1.00;;;;;;;23.10;41.19;101691.16;5066959;28;20037;-60
2022/07/29 07:05:08;;;;;;;2.25;1.25;;;;;;;23.10;41.36;101691.16;5066686;28;20017;-60
2022/07/29 07:07:33;;;;;;;1.58;0.63;;;;;;;23.10;41.26;101693.88;5066282;28;20051;-60
2022/07/29 07:09:59;;;;;;;1.58;0.93;;;;;;;23.09;41.31;101697.63;5070071;28;20461;-61
2022/07/29 07:12:25;;;;;;;1.65;1.20;;;;;;;23.10;41.08;101699.28;5086717;28;20024;-59
2022/07/29 07:14:50;;;;;;;3.05;1.00;;;;;;;23.10;41.23;101702.84;5086922;28;20079;-59
2022/07/29 07:17:15;;;;;;;2.28;1.00;;;;;;;23.10;41.25;101702.00;5086766;28;20024;-59
2022/07/29 07:19:40;;;;;;;2.42;0.90;;;;;;;23.09;41.14;101695.75;5086673;28;20089;-60
2022/07/29 07:22:05;;;;;;;1.00;0.90;;;;;;;23.10;41.27;101693.88;5086194;28;20035;-59
2022/07/29 07:24:31;;;;;;;2.08;0.80;;;;;;;23.09;41.32;101690.31;5086785;28;20028;-61
2022/07/29 07:26:56;;;;;;;3.22;1.38;;;;;;;22.95;41.30;101661.25;5086491;28;20020;-60
2022/07/29 07:29:21;;;;;;;1.70;1.05;;;;;;;23.07;41.51;101675.25;5085242;28;20040;-60
2022/07/29 07:31:46;;;;;;;1.10;0.80;;;;;;;23.10;41.32;101689.28;5086415;28;20119;-60
2022/07/29 07:34:12;;;;;;;0.93;0.77;;;;;;;23.09;41.25;101678.63;5086332;28;20032;-60
2022/07/29 07:36:37;;;;;;;2.35;0.93;;;;;;;23.10;41.08;101680.31;5085944;28;20024;-59
2022/07/29 07:39:03;;;;;;;1.67;0.80;;;;;;;23.09;41.30;101684.88;5085873;28;20021;-60
2022/07/29 07:41:28;;;;;;;1.80;0.98;;;;;;;23.10;41.23;101683.88;5086297;28;20051;-60
2022/07/29 07:43:54;;;;;;;2.03;1.02;;;;;;;23.09;41.36;101687.59;5085884;28;20075;-60
2022/07/29 07:46:19;;;;;;;1.50;1.00;;;;;;;23.10;41.38;101683.03;5086174;28;20167;-60
2022/07/29 07:48:44;;;;;;;1.02;0.70;;;;;;;23.10;41.32;101681.16;5086121;28;20025;-61
2022/07/29 07:51:09;;;;;;;1.45;0.95;;;;;;;23.11;41.38;101684.72;5085222;28;20033;-58
2022/07/29 07:53:34;;;;;;;7.40;1.30;;;;;;;23.10;41.67;101683.03;5085459;28;20024;-60
2022/07/29 07:56:00;;;;;;;4.90;0.90;;;;;;;23.12;41.30;101686.41;5085825;28;20446;-60
2022/07/29 07:58:26;;;;;;;2.47;0.98;;;;;;;23.12;41.43;101679.13;5086018;28;20016;-60
2022/07/29 08:00:51;;;;;;;1.52;0.90;;;;;;;23.13;41.38;101682.69;5085688;28;20032;-61
2022/07/29 08:03:17;;;;;;;2.10;1.00;;;;;;;23.13;41.27;101675.38;5086060;28;20024;-61
2022/07/29 08:05:42;;;;;;;3.72;0.80;;;;;;;23.14;41.39;101670.78;5085494;28;20051;-60
2022/07/29 08:08:07;;;;;;;1.17;0.77;;;;;;;23.11;41.35;101663.88;5085441;28;20028;-60
2022/07/29 08:10:51;;;;;;;1.83;0.90;;;;;;;23.15;41.46;101673.34;5077938;28;20424;-60
2022/07/29 08:13:17;;;;;;;2.58;1.30;;;;;;;23.16;41.52;101671.47;5065574;28;20025;-60
2022/07/29 08:15:44;;;;;;;1.08;0.77;;;;;;;23.16;41.42;101666.06;5065273;28;20513;-60
2022/07/29 08:18:10;;;;;;;1.40;0.88;;;;;;;23.17;41.41;101663.16;5065918;28;20456;-60
2022/07/29 08:20:37;;;;;;;1.45;1.15;;;;;;;23.17;41.35;101660.44;5065392;28;20025;-60
2022/07/29 08:23:04;;;;;;;1.85;1.13;;;;;;;23.16;41.53;101668.75;5065225;28;20048;-60
2022/07/29 08:25:29;;;;;;;3.08;1.10;;;;;;;23.12;41.46;101654.72;5065446;28;20111;-60
2022/07/29 08:27:54;;;;;;;1.83;0.98;;;;;;;23.18;41.41;101664.84;5065141;28;20021;-61
2022/07/29 08:30:20;;;;;;;2.75;1.10;;;;;;;23.19;41.40;101668.38;5065182;28;20078;-60
2022/07/29 08:32:47;;;;;;;2.00;1.00;;;;;;;23.18;41.51;101670.25;5065184;28;20027;-60
2022/07/29 08:35:13;;;;;;;2.47;1.13;;;;;;;23.17;41.47;101663.16;5064982;28;20029;-60
2022/07/29 08:37:38;;;;;;;2.10;1.05;;;;;;;23.19;41.69;101673.81;5064953;28;20029;-60
2022/07/29 08:40:04;;;;;;;1.90;1.05;;;;;;;23.19;41.38;101666.53;5065542;28;20075;-60
2022/07/29 08:42:30;;;;;;;2.30;1.40;;;;;;;23.10;41.76;101654.03;5065094;28;20031;-60
2022/07/29 08:44:56;;;;;;;1.90;0.90;;;;;;;23.19;41.61;101676.53;5064986;28;20059;-59
2022/07/29 08:47:22;;;;;;;3.05;1.33;;;;;;;23.17;41.84;101679.44;5063675;28;20067;-60
2022/07/29 08:49:48;;;;;;;1.73;0.90;;;;;;;23.19;41.49;101688.25;5064793;28;20024;-60
2022/07/29 08:52:14;;;;;;;2.05;1.00;;;;;;;23.19;41.58;101681.94;5064319;28;20040;-60
2022/07/29 08:54:43;;;;;;;1.73;0.90;;;;;;;23.20;41.67;101684.50;5063882;28;20029;-59
2022/07/29 08:57:09;;;;;;;1.13;0.70;;;;;;;23.20;41.64;101681.78;5064832;28;20025;-60
2022/07/29 08:59:35;;;;;;;2.22;1.00;;;;;;;23.18;41.86;101683.81;5063732;28;20052;-60
2022/07/29 09:02:00;;;;;;;2.08;1.05;;;;;;;23.23;41.79;101683.28;5064891;28;20021;-60
2022/07/29 09:04:32;;;;;;;5.97;1.23;;;;;;;23.23;41.86;101688.72;5064371;28;20029;-60
2022/07/29 09:06:59;;;;;;;1.73;1.00;;;;;;;23.23;41.71;101688.72;5062967;28;20039;-60
2022/07/29 09:09:24;;;;;;;2.03;0.90;;;;;;;23.22;41.96;101687.03;5063570;28;20024;-60
2022/07/29 09:11:49;;;;;;;1.27;0.98;;;;;;;23.25;41.90;101694.81;5082888;28;20056;-60
2022/07/29 09:14:15;;;;;;;1.63;1.27;;;;;;;23.26;41.96;101695.66;5085043;28;20051;-60
2022/07/29 09:16:54;;;;;;;2.65;0.95;;;;;;;23.26;41.98;101696.50;5084415;28;20032;-59
2022/07/29 09:19:20;;;;;;;2.85;1.33;;;;;;;23.27;42.14;101691.91;5085032;28;20032;-60
2022/07/29 09:21:58;;;;;;;2.35;1.13;;;;;;;23.26;41.74;101696.50;5084353;28;20496;-60
2022/07/29 09:24:26;;;;;;;1.27;0.90;;;;;;;23.26;42.08;101706.50;5084072;28;20047;-60
2022/07/29 09:26:51;;;;;;;2.60;0.90;;;;;;;23.27;42.04;101706.31;5084439;28;20046;-60
2022/07/29 09:29:19;;;;;;;2.10;1.33;;;;;;;23.27;42.15;101709.03;5083799;28;20056;-60
2022/07/29 09:31:49;;;;;;;2.97;1.17;;;;;;;23.26;42.40;101699.22;5084603;28;20024;-60
2022/07/29 09:34:17;;;;;;;1.35;0.75;;;;;;;23.27;43.11;101700.91;5085025;28;20066;-60
2022/07/29 09:36:48;;;;;;;2.53;0.87;;;;;;;23.28;42.94;101712.59;5084226;28;20039;-60
2022/07/29 09:39:14;;;;;;;2.90;0.98;;;;;;;23.28;42.81;101723.44;5084362;28;20016;-60
2022/07/29 09:41:53;;;;;;;1.42;0.90;;;;;;;23.28;42.87;101713.47;5084371;28;20029;-60
2022/07/29 09:44:19;;;;;;;2.08;1.00;;;;;;;23.27;42.54;101714.47;5084879;28;20048;-60
2022/07/29 09:47:05;;;;;;;2.08;1.27;;;;;;;23.28;42.52;101709.88;5083210;28;20026;-60
2022/07/29 09:49:35;;;;;;;7.75;2.13;;;;;;;23.27;42.52;101719.03;5084993;28;20056;-59
2022/07/29 09:52:05;;;;;;;3.58;1.20;;;;;;;23.26;42.58;101707.34;5084489;28;20496;-59
2022/07/29 09:54:36;;;;;;;2.50;1.55;;;;;;;23.27;42.63;101705.47;5084456;28;20048;-59
2022/07/29 09:57:03;;;;;;;3.13;1.15;;;;;;;23.27;42.52;101716.34;5084169;28;20036;-59
2022/07/29 09:59:28;;;;;;;1.02;0.88;;;;;;;23.27;43.21;101722.59;5084584;28;20035;-60
2022/07/29 10:01:53;;;;;;;1.10;0.90;;;;;;;23.27;43.42;101716.34;5084260;28;20028;-59
2022/07/29 10:04:19;;;;;;;3.10;1.33;;;;;;;23.27;43.26;101722.59;5084287;28;20085;-60
2022/07/29 10:07:01;;;;;;;2.17;1.05;;;;;;;23.28;43.35;101720.72;5084014;28;20107;-60
2022/07/29 10:09:27;;;;;;;3.65;1.42;;;;;;;23.28;43.38;101723.44;5084510;28;20029;-60
2022/07/29 10:12:15;;;;;;;1.40;1.00;;;;;;;23.28;43.28;101729.75;5084061;28;20084;-60
2022/07/29 10:14:41;;;;;;;1.73;1.00;;;;;;;23.28;43.53;101731.59;5085226;28;20059;-59
2022/07/29 10:17:08;;;;;;;3.00;1.15;;;;;;;23.24;43.92;101722.97;5087521;28;20489;-61
2022/07/29 10:19:34;;;;;;;1.67;0.93;;;;;;;23.27;43.64;101733.44;5088173;28;20035;-60
2022/07/29 10:22:02;;;;;;;1.45;1.05;;;;;;;23.27;43.69;101728.03;5087567;28;20029;-60
2022/07/29 10:24:29;;;;;;;1.55;1.13;;;;;;;23.28;43.79;101727.03;5088033;28;20020;-59
2022/07/29 10:26:55;;;;;;;1.73;1.08;;;;;;;23.27;43.95;101725.31;5087521;28;20028;-60
2022/07/29 10:29:21;;;;;;;1.05;0.85;;;;;;;23.28;43.79;101721.59;5087836;28;20171;-59
2022/07/29 10:32:07;;;;;;;2.03;1.10;;;;;;;23.30;43.62;101715.97;5087651;28;20024;-60
2022/07/29 10:34:51;;;;;;;1.23;0.82;;;;;;;23.32;43.61;101722.06;5086498;28;20024;-60
2022/07/29 10:37:28;;;;;;;1.30;1.08;;;;;;;23.31;43.67;101707.66;5085564;28;20114;-60
2022/07/29 10:40:00;;;;;;;1.98;0.90;;;;;;;23.32;43.54;101708.50;5086324;28;20029;-60
2022/07/29 10:42:28;;;;;;;1.17;0.80;;;;;;;23.33;43.73;101712.94;5087359;28;20032;-60
2022/07/29 10:44:53;;;;;;;1.58;1.08;;;;;;;23.33;43.58;101716.47;5086386;28;20505;-60
2022/07/29 10:47:23;;;;;;;2.63;1.15;;;;;;;23.30;43.71;101705.97;5087379;28;20032;-60
2022/07/29 10:50:15;;;;;;;2.80;1.02;;;;;;;23.35;43.47;101710.88;5087095;28;20491;-60
2022/07/29 10:52:49;;;;;;;1.65;1.25;;;;;;;23.35;43.26;101716.28;5085460;28;20039;-59
2022/07/29 10:55:39;;;;;;;1.98;0.90;;;;;;;23.36;43.15;101709.81;5087383;28;20102;-59
2022/07/29 10:58:19;;;;;;;3.15;1.25;;;;;;;23.35;43.16;101709.00;5087212;28;20031;-59
2022/07/29 11:00:52;;;;;;;3.42;1.05;;;;;;;23.35;43.17;101706.28;5086868;28;20028;-60
2022/07/29 11:03:44;;;;;;;1.48;0.90;;;;;;;23.36;43.61;101710.69;5087255;28;20039;-60
2022/07/29 11:06:09;;;;;;;1.33;0.95;;;;;;;23.37;43.16;101722.41;5086753;28;20020;-60
2022/07/29 11:08:35;;;;;;;2.42;1.13;;;;;;;23.06;43.47;101671.69;5086701;28;20064;-60
2022/07/29 11:11:32;;;;;;;2.53;1.23;;;;;;;23.36;43.53;101712.53;5075539;28;20097;-60
2022/07/29 11:13:58;;;;;;;2.85;1.00;;;;;;;23.37;43.06;101719.69;5054537;28;20041;-59
2022/07/29 11:16:23;;;;;;;3.15;1.23;;;;;;;23.37;43.15;101720.53;5066412;28;20055;-60
2022/07/29 11:19:14;;;;;;;2.05;1.30;;;;;;;23.38;43.21;101722.22;5066789;28;20025;-61
2022/07/29 11:21:46;;;;;;;2.58;1.15;;;;;;;23.39;42.88;101723.88;5066564;28;20436;-60
2022/07/29 11:24:18;;;;;;;1.95;0.95;;;;;;;23.30;43.26;101703.25;5066490;28;20104;-60
2022/07/29 11:26:43;;;;;;;2.30;1.20;;;;;;;23.41;43.03;101716.44;5066013;28;20096;-60
2022/07/29 11:29:24;;;;;;;1.67;1.02;;;;;;;23.41;42.98;101719.16;5065391;28;20025;-60
2022/07/29 11:31:54;;;;;;;1.30;0.80;;;;;;;23.40;42.90;101708.44;5066277;28;20029;-61
2022/07/29 11:34:22;;;;;;;1.73;0.90;;;;;;;23.41;43.05;101712.88;5066648;28;20035;-59